Time;durP1;ratioP1;P1;durP2;ratioP2;P2;SDS_P1;SDS_P2;PMS_P1;PMS_P2;Temp;Humidity;BMP_temperature;BMP_pressure;BME280_temperature;BME280_humidity;BME280_pressure;Samples;Min_cycle;Max_cycle;Signal;HPM_P1;HPM_P2
2023/09/22 00:01:30;;;;;;;0.40;0.40;;;;;;;;;;5137176;27;20183;-91
2023/09/22 00:03:59;;;;;;;0.30;0.30;;;;;;;;;;5139556;28;20247;-91
2023/09/22 00:06:28;;;;;;;0.30;0.30;;;;;;;;;;5139538;28;20243;-91
2023/09/22 00:08:56;;;;;;;0.73;0.73;;;;;;;;;;5139112;27;20212;-89
2023/09/22 00:11:23;;;;;;;0.30;0.30;;;;;;;;;;5138614;27;20196;-91
2023/09/22 00:13:51;;;;;;;0.52;0.52;;;;;;;;;;5136937;27;20218;-92
2023/09/22 00:16:18;;;;;;;0.70;0.70;;;;;;;;;;5136277;27;20222;-92
2023/09/22 00:18:46;;;;;;;1.27;1.20;;;;;;;;;;5137318;28;20288;-92
2023/09/22 00:21:14;;;;;;;0.60;0.60;;;;;;;;;;5136187;28;20207;-91
2023/09/22 00:23:43;;;;;;;0.40;0.40;;;;;;;;;;5137270;28;20200;-91
2023/09/22 00:26:10;;;;;;;0.60;0.60;;;;;;;;;;5132670;28;20211;-91
2023/09/22 00:28:38;;;;;;;0.60;0.60;;;;;;;;;;5132327;28;20265;-91
2023/09/22 00:31:05;;;;;;;0.30;0.30;;;;;;;;;;5135552;28;20223;-91
2023/09/22 00:33:33;;;;;;;0.50;0.50;;;;;;;;;;5134431;28;20180;-94
2023/09/22 00:36:03;;;;;;;0.63;0.63;;;;;;;;;;5133550;28;20202;-92
2023/09/22 00:38:30;;;;;;;0.40;0.40;;;;;;;;;;5131510;28;20279;-91
2023/09/22 00:40:59;;;;;;;1.27;0.60;;;;;;;;;;5127296;28;20210;-92
2023/09/22 00:43:27;;;;;;;1.42;0.88;;;;;;;;;;5126736;28;20692;-91
2023/09/22 00:45:55;;;;;;;0.85;0.82;;;;;;;;;;5122744;28;20412;-92
2023/09/22 00:48:27;;;;;;;0.60;0.60;;;;;;;;;;5117673;28;20314;-92
2023/09/22 00:50:56;;;;;;;0.47;0.47;;;;;;;;;;5117712;28;20863;-92
2023/09/22 00:53:25;;;;;;;0.60;0.60;;;;;;;;;;5117156;28;20205;-92
2023/09/22 00:55:54;;;;;;;0.70;0.70;;;;;;;;;;5117887;28;20204;-93
2023/09/22 00:58:23;;;;;;;0.50;0.50;;;;;;;;;;5117785;28;20658;-93
2023/09/22 01:00:52;;;;;;;0.47;0.47;;;;;;;;;;5117984;28;20279;-94
2023/09/22 01:03:20;;;;;;;0.45;0.45;;;;;;;;;;5117508;28;20279;-91
2023/09/22 01:05:48;;;;;;;0.50;0.50;;;;;;;;;;5116536;28;20211;-91
2023/09/22 01:08:16;;;;;;;0.60;0.60;;;;;;;;;;5117665;28;20287;-92
2023/09/22 01:10:44;;;;;;;0.50;0.50;;;;;;;;;;5119527;28;20223;-93
2023/09/22 01:13:11;;;;;;;0.82;0.82;;;;;;;;;;5117296;28;20248;-92
2023/09/22 01:15:42;;;;;;;0.93;0.90;;;;;;;;;;5116080;28;20218;-92
2023/09/22 01:18:13;;;;;;;0.75;0.75;;;;;;;;;;5116997;28;20215;-92
2023/09/22 01:20:42;;;;;;;0.60;0.60;;;;;;;;;;5120816;28;20191;-92
2023/09/22 01:23:13;;;;;;;0.40;0.40;;;;;;;;;;5120520;28;20200;-93
2023/09/22 01:25:40;;;;;;;0.70;0.70;;;;;;;;;;5117601;28;20206;-91
2023/09/22 01:28:08;;;;;;;0.57;0.57;;;;;;;;;;5116805;28;20291;-91
2023/09/22 01:30:36;;;;;;;0.55;0.55;;;;;;;;;;5118558;28;20291;-92
2023/09/22 01:33:05;;;;;;;0.35;0.35;;;;;;;;;;5119822;28;20204;-93
2023/09/22 01:35:33;;;;;;;0.60;0.60;;;;;;;;;;5119914;28;20275;-92
2023/09/22 01:38:14;;;;;;;0.38;0.38;;;;;;;;;;5121482;28;20210;-92
2023/09/22 01:40:42;;;;;;;0.50;0.50;;;;;;;;;;5118830;28;20207;-92
2023/09/22 01:43:10;;;;;;;0.70;0.70;;;;;;;;;;5115705;28;20196;-92
2023/09/22 01:45:37;;;;;;;0.40;0.40;;;;;;;;;;5115427;28;20203;-92
2023/09/22 01:48:07;;;;;;;0.50;0.50;;;;;;;;;;5115183;28;20233;-93
2023/09/22 01:50:37;;;;;;;0.30;0.30;;;;;;;;;;5115904;28;20191;-93
2023/09/22 01:53:05;;;;;;;0.50;0.50;;;;;;;;;;5115874;28;20196;-91
2023/09/22 01:55:35;;;;;;;0.40;0.40;;;;;;;;;;5116701;28;20196;-92
2023/09/22 01:58:04;;;;;;;0.45;0.45;;;;;;;;;;5116323;28;20576;-92
2023/09/22 02:00:33;;;;;;;0.43;0.43;;;;;;;;;;5119344;28;20208;-92
2023/09/22 02:03:00;;;;;;;0.50;0.50;;;;;;;;;;5119458;28;20223;-92
2023/09/22 02:05:29;;;;;;;0.60;0.60;;;;;;;;;;5125938;28;20295;-93
2023/09/22 02:07:57;;;;;;;0.40;0.40;;;;;;;;;;5132226;28;20700;-91
2023/09/22 02:10:24;;;;;;;0.70;0.68;;;;;;;;;;5126762;28;20223;-93
2023/09/22 02:12:54;;;;;;;1.65;0.98;;;;;;;;;;5123968;28;20266;-93
2023/09/22 02:15:21;;;;;;;0.50;0.50;;;;;;;;;;5124435;28;20641;-92
2023/09/22 02:17:49;;;;;;;1.05;0.50;;;;;;;;;;5123252;28;20246;-91
2023/09/22 02:20:22;;;;;;;0.40;0.40;;;;;;;;;;5126519;27;20223;-91
2023/09/22 02:22:51;;;;;;;0.38;0.38;;;;;;;;;;5124123;28;20199;-92
2023/09/22 02:25:19;;;;;;;0.70;0.70;;;;;;;;;;5122005;27;20215;-92
2023/09/22 02:27:48;;;;;;;0.47;0.47;;;;;;;;;;5120548;27;20203;-93
2023/09/22 02:30:17;;;;;;;0.60;0.60;;;;;;;;;;5123000;27;20226;-93
2023/09/22 02:32:49;;;;;;;0.50;0.50;;;;;;;;;;5123520;28;20286;-91
2023/09/22 02:35:17;;;;;;;0.60;0.60;;;;;;;;;;5126379;27;20213;-93
2023/09/22 02:37:44;;;;;;;0.57;0.57;;;;;;;;;;5127328;28;20220;-92
2023/09/22 02:40:14;;;;;;;0.30;0.30;;;;;;;;;;5125879;27;20262;-92
2023/09/22 02:42:43;;;;;;;0.50;0.50;;;;;;;;;;5121482;28;20222;-92
2023/09/22 02:45:11;;;;;;;0.50;0.50;;;;;;;;;;5122188;28;20207;-92
2023/09/22 02:47:41;;;;;;;0.77;0.77;;;;;;;;;;5123277;28;20207;-92
2023/09/22 02:50:10;;;;;;;0.50;0.50;;;;;;;;;;5129230;28;20303;-92
2023/09/22 02:52:38;;;;;;;0.32;0.32;;;;;;;;;;5128474;28;20203;-91
2023/09/22 02:55:08;;;;;;;0.50;0.50;;;;;;;;;;5126912;28;20227;-91
2023/09/22 02:57:36;;;;;;;0.60;0.60;;;;;;;;;;5124809;28;20286;-91
2023/09/22 03:00:11;;;;;;;0.25;0.25;;;;;;;;;;5123122;28;20268;-91
2023/09/22 03:02:40;;;;;;;0.50;0.40;;;;;;;;;;5123790;28;20587;-92
2023/09/22 03:05:09;;;;;;;0.43;0.43;;;;;;;;;;5123910;28;20275;-90
2023/09/22 03:07:37;;;;;;;0.35;0.35;;;;;;;;;;5123082;28;20200;-92
2023/09/22 03:10:06;;;;;;;0.32;0.32;;;;;;;;;;5122878;28;20227;-92
2023/09/22 03:12:35;;;;;;;0.63;0.63;;;;;;;;;;5121332;28;20259;-91
2023/09/22 03:15:04;;;;;;;0.50;0.50;;;;;;;;;;5119542;28;20249;-93
2023/09/22 03:17:31;;;;;;;0.57;0.57;;;;;;;;;;5120291;27;20219;-92
2023/09/22 03:20:00;;;;;;;0.52;0.52;;;;;;;;;;5119894;27;20310;-93
2023/09/22 03:22:28;;;;;;;0.65;0.65;;;;;;;;;;5119442;28;20223;-91
2023/09/22 03:24:55;;;;;;;0.30;0.30;;;;;;;;;;5118895;27;20671;-92
2023/09/22 03:27:23;;;;;;;0.50;0.50;;;;;;;;;;5119237;27;20286;-93
2023/09/22 03:29:51;;;;;;;0.77;0.77;;;;;;;;;;5119357;28;20251;-92
2023/09/22 03:32:18;;;;;;;0.63;0.63;;;;;;;;;;5121563;28;20227;-91
2023/09/22 03:34:48;;;;;;;0.50;0.50;;;;;;;;;;5122008;27;20199;-92
2023/09/22 03:37:18;;;;;;;1.52;0.70;;;;;;;;;;5121249;27;20283;-92
2023/09/22 03:39:47;;;;;;;0.85;0.85;;;;;;;;;;5121523;28;20220;-91
2023/09/22 03:42:15;;;;;;;0.50;0.50;;;;;;;;;;5122910;28;20227;-93
2023/09/22 03:44:43;;;;;;;1.23;1.13;;;;;;;;;;5123899;28;20264;-93
2023/09/22 03:47:10;;;;;;;0.65;0.65;;;;;;;;;;5123108;28;20200;-91
2023/09/22 03:49:38;;;;;;;0.50;0.50;;;;;;;;;;5122137;28;20283;-92
2023/09/22 03:52:06;;;;;;;0.40;0.40;;;;;;;;;;5121358;28;20258;-94
2023/09/22 03:54:35;;;;;;;0.30;0.30;;;;;;;;;;5121698;28;20279;-93
2023/09/22 03:57:06;;;;;;;0.32;0.32;;;;;;;;;;5107056;28;20199;-92
2023/09/22 03:59:33;;;;;;;0.60;0.60;;;;;;;;;;5102594;28;20338;-92
2023/09/22 04:02:01;;;;;;;0.57;0.55;;;;;;;;;;5102875;28;20295;-91
2023/09/22 04:04:30;;;;;;;0.82;0.82;;;;;;;;;;5101705;28;20211;-90
2023/09/22 04:06:59;;;;;;;0.70;0.70;;;;;;;;;;5101648;28;20252;-91
2023/09/22 04:09:31;;;;;;;0.50;0.50;;;;;;;;;;5109143;28;20249;-91
2023/09/22 04:12:00;;;;;;;0.70;0.70;;;;;;;;;;5102773;28;20228;-91
2023/09/22 04:14:28;;;;;;;0.73;0.30;;;;;;;;;;5103844;28;20514;-92
2023/09/22 04:16:55;;;;;;;0.90;0.50;;;;;;;;;;5109156;28;20564;-91
2023/09/22 04:19:23;;;;;;;0.45;0.45;;;;;;;;;;5113565;28;21148;-92
2023/09/22 04:21:52;;;;;;;0.50;0.50;;;;;;;;;;5105831;28;20195;-93
2023/09/22 04:24:20;;;;;;;0.75;0.50;;;;;;;;;;5103644;28;20207;-92
2023/09/22 04:26:49;;;;;;;0.52;0.52;;;;;;;;;;5101896;28;20196;-93
2023/09/22 04:29:18;;;;;;;0.70;0.70;;;;;;;;;;5102936;28;20234;-91
2023/09/22 04:31:45;;;;;;;0.70;0.70;;;;;;;;;;5102968;28;20208;-93
2023/09/22 04:34:14;;;;;;;0.70;0.70;;;;;;;;;;5101978;28;20204;-92
2023/09/22 04:36:42;;;;;;;0.50;0.50;;;;;;;;;;5102036;28;20208;-92
2023/09/22 04:39:10;;;;;;;1.67;0.60;;;;;;;;;;5103062;28;20223;-92
2023/09/22 04:41:39;;;;;;;0.65;0.65;;;;;;;;;;5102414;28;20242;-94
2023/09/22 04:44:07;;;;;;;1.33;0.50;;;;;;;;;;5104372;28;20212;-91
2023/09/22 04:46:36;;;;;;;0.45;0.45;;;;;;;;;;5106001;28;20218;-91
2023/09/22 04:49:04;;;;;;;0.80;0.80;;;;;;;;;;5104752;28;20220;-92
2023/09/22 04:51:32;;;;;;;0.60;0.60;;;;;;;;;;5104295;28;20199;-92
2023/09/22 04:53:59;;;;;;;0.60;0.60;;;;;;;;;;5102230;28;20207;-90
2023/09/22 04:56:27;;;;;;;0.70;0.70;;;;;;;;;;5101258;28;20207;-91
2023/09/22 04:58:56;;;;;;;0.50;0.50;;;;;;;;;;5101698;28;20227;-93
2023/09/22 05:01:25;;;;;;;0.50;0.50;;;;;;;;;;5103690;28;20210;-92
2023/09/22 05:03:54;;;;;;;0.60;0.60;;;;;;;;;;5119760;28;20203;-91
2023/09/22 05:06:21;;;;;;;0.30;0.30;;;;;;;;;;5122444;28;20210;-90
2023/09/22 05:08:49;;;;;;;0.55;0.50;;;;;;;;;;5107322;28;20227;-90
2023/09/22 05:11:16;;;;;;;0.40;0.40;;;;;;;;;;5102937;28;20349;-91
2023/09/22 05:13:44;;;;;;;1.35;0.75;;;;;;;;;;5103978;28;20207;-90
2023/09/22 05:16:13;;;;;;;0.70;0.70;;;;;;;;;;5103637;28;20671;-92
2023/09/22 05:18:41;;;;;;;0.93;0.88;;;;;;;;;;5102591;28;20231;-91
2023/09/22 05:21:10;;;;;;;0.80;0.80;;;;;;;;;;5101894;28;20870;-91
2023/09/22 05:23:38;;;;;;;0.85;0.68;;;;;;;;;;5102352;28;20199;-92
2023/09/22 05:26:07;;;;;;;0.80;0.80;;;;;;;;;;5102018;28;20631;-91
2023/09/22 05:28:35;;;;;;;0.88;0.88;;;;;;;;;;5108745;28;21479;-89
2023/09/22 05:31:04;;;;;;;0.80;0.80;;;;;;;;;;5107102;28;20226;-91
2023/09/22 05:33:32;;;;;;;0.80;0.80;;;;;;;;;;5103154;28;20235;-92
2023/09/22 05:36:00;;;;;;;0.65;0.65;;;;;;;;;;5102909;28;20256;-92
2023/09/22 05:38:29;;;;;;;0.90;0.90;;;;;;;;;;5102766;28;20227;-91
2023/09/22 05:40:58;;;;;;;0.80;0.80;;;;;;;;;;5107245;28;20230;-92
2023/09/22 05:43:26;;;;;;;0.68;0.68;;;;;;;;;;5106777;28;20486;-91
2023/09/22 05:45:55;;;;;;;0.82;0.82;;;;;;;;;;5108666;28;20618;-91
2023/09/22 05:48:22;;;;;;;0.95;0.95;;;;;;;;;;5106589;28;20226;-91
2023/09/22 05:50:57;;;;;;;0.68;0.68;;;;;;;;;;5105393;28;20323;-91
2023/09/22 05:53:25;;;;;;;0.80;0.80;;;;;;;;;;5105519;28;20782;-91
2023/09/22 05:56:04;;;;;;;1.15;0.70;;;;;;;;;;5106730;28;20215;-92
2023/09/22 05:58:32;;;;;;;2.50;1.23;;;;;;;;;;5112211;28;20231;-91
2023/09/22 06:01:08;;;;;;;0.90;0.85;;;;;;;;;;5123634;28;20191;-91
2023/09/22 06:03:37;;;;;;;1.15;1.05;;;;;;;;;;5106861;28;20203;-92
2023/09/22 06:06:08;;;;;;;0.90;0.90;;;;;;;;;;5106919;28;20211;-91
2023/09/22 06:08:37;;;;;;;0.80;0.80;;;;;;;;;;5103118;28;20315;-92
2023/09/22 06:11:06;;;;;;;0.70;0.70;;;;;;;;;;5104216;28;20224;-92
2023/09/22 06:13:33;;;;;;;1.13;0.88;;;;;;;;;;5109349;28;20192;-93
2023/09/22 06:16:01;;;;;;;0.80;0.80;;;;;;;;;;5121978;28;20275;-91
2023/09/22 06:18:29;;;;;;;1.02;0.93;;;;;;;;;;5110964;28;20223;-92
2023/09/22 06:20:57;;;;;;;0.80;0.80;;;;;;;;;;5120330;28;20199;-92
2023/09/22 06:23:25;;;;;;;1.15;0.98;;;;;;;;;;5120479;28;20287;-91
2023/09/22 06:25:54;;;;;;;1.23;0.80;;;;;;;;;;5122189;28;20287;-92
2023/09/22 06:28:23;;;;;;;0.77;0.77;;;;;;;;;;5124417;28;20253;-92
2023/09/22 06:30:52;;;;;;;0.80;0.80;;;;;;;;;;5124429;27;20298;-91
2023/09/22 06:33:20;;;;;;;1.10;0.70;;;;;;;;;;5123433;28;20191;-92
2023/09/22 06:35:55;;;;;;;0.70;0.70;;;;;;;;;;5123134;28;20259;-93
2023/09/22 06:38:23;;;;;;;2.63;0.90;;;;;;;;;;5122747;27;20221;-92
2023/09/22 06:40:55;;;;;;;2.00;0.90;;;;;;;;;;5122679;28;20222;-92
2023/09/22 06:43:24;;;;;;;0.80;0.80;;;;;;;;;;5122610;28;20242;-92
2023/09/22 06:45:52;;;;;;;0.80;0.80;;;;;;;;;;5123249;28;20241;-93
2023/09/22 06:48:22;;;;;;;1.15;0.88;;;;;;;;;;5125806;28;20254;-92
2023/09/22 06:50:51;;;;;;;0.82;0.80;;;;;;;;;;5124262;28;20246;-92
2023/09/22 06:53:19;;;;;;;0.77;0.73;;;;;;;;;;5131153;28;20191;-89
2023/09/22 06:55:48;;;;;;;5.55;0.90;;;;;;;;;;5136388;28;20196;-91
2023/09/22 06:58:15;;;;;;;1.23;1.13;;;;;;;;;;5131586;28;20203;-91
2023/09/22 07:00:44;;;;;;;1.05;1.05;;;;;;;;;;5134566;28;20188;-91
2023/09/22 07:03:12;;;;;;;1.38;0.90;;;;;;;;;;5138866;28;20256;-90
2023/09/22 07:05:39;;;;;;;1.42;0.85;;;;;;;;;;5134787;28;20227;-90
2023/09/22 07:08:07;;;;;;;0.80;0.80;;;;;;;;;;5136491;27;20211;-89
2023/09/22 07:10:35;;;;;;;2.17;0.88;;;;;;;;;;5137106;28;20227;-89
2023/09/22 07:13:03;;;;;;;0.70;0.70;;;;;;;;;;5136413;28;20245;-90
2023/09/22 07:15:31;;;;;;;0.80;0.80;;;;;;;;;;5135409;27;20227;-90
2023/09/22 07:18:01;;;;;;;2.05;1.08;;;;;;;;;;5134003;28;20211;-91
2023/09/22 07:20:28;;;;;;;0.93;0.93;;;;;;;;;;5133208;28;20195;-91
2023/09/22 07:22:56;;;;;;;1.05;0.93;;;;;;;;;;5129105;28;20659;-91
2023/09/22 07:25:26;;;;;;;1.85;1.15;;;;;;;;;;5133683;28;20244;-91
2023/09/22 07:27:54;;;;;;;0.73;0.70;;;;;;;;;;5130773;28;20259;-90
2023/09/22 07:30:22;;;;;;;1.58;1.00;;;;;;;;;;5129758;28;20224;-91
2023/09/22 07:32:49;;;;;;;1.40;0.73;;;;;;;;;;5130020;28;20223;-91
2023/09/22 07:35:18;;;;;;;1.27;1.15;;;;;;;;;;5129760;28;20688;-89
2023/09/22 07:37:46;;;;;;;1.45;0.70;;;;;;;;;;5130341;28;20215;-92
2023/09/22 07:40:14;;;;;;;1.10;0.80;;;;;;;;;;5126620;28;20306;-92
2023/09/22 07:42:42;;;;;;;1.85;0.70;;;;;;;;;;5122622;28;20192;-89
2023/09/22 07:45:10;;;;;;;0.90;0.88;;;;;;;;;;5117202;28;20210;-92
2023/09/22 07:47:38;;;;;;;1.75;1.00;;;;;;;;;;5117238;28;20290;-91
2023/09/22 07:50:06;;;;;;;1.88;1.00;;;;;;;;;;5117898;28;20228;-91
2023/09/22 07:52:35;;;;;;;1.02;1.00;;;;;;;;;;5116673;28;20224;-92
2023/09/22 07:55:03;;;;;;;0.98;0.90;;;;;;;;;;5116434;28;20208;-91
2023/09/22 07:57:31;;;;;;;1.25;1.15;;;;;;;;;;5117242;28;20195;-94
2023/09/22 07:59:59;;;;;;;0.88;0.77;;;;;;;;;;5121815;28;20644;-91
2023/09/22 08:02:27;;;;;;;1.00;1.00;;;;;;;;;;5115739;28;20291;-90
2023/09/22 08:04:56;;;;;;;0.75;0.75;;;;;;;;;;5116809;28;20211;-92
2023/09/22 08:07:24;;;;;;;0.63;0.60;;;;;;;;;;5115945;28;20203;-90
2023/09/22 08:09:53;;;;;;;1.08;1.00;;;;;;;;;;5115003;28;20223;-91
2023/09/22 08:12:20;;;;;;;0.70;0.70;;;;;;;;;;5115074;28;20704;-92
2023/09/22 08:14:48;;;;;;;1.38;1.00;;;;;;;;;;5114734;28;20238;-90
2023/09/22 08:17:16;;;;;;;0.70;0.70;;;;;;;;;;5114411;28;20225;-91
2023/09/22 08:19:43;;;;;;;0.90;0.90;;;;;;;;;;5114792;28;20648;-92
2023/09/22 08:22:11;;;;;;;1.35;1.20;;;;;;;;;;5114305;28;20282;-92
2023/09/22 08:24:38;;;;;;;1.10;1.00;;;;;;;;;;5115380;28;20636;-91
2023/09/22 08:27:07;;;;;;;0.82;0.82;;;;;;;;;;5116139;28;20259;-92
2023/09/22 08:29:35;;;;;;;1.52;0.80;;;;;;;;;;5115051;28;20302;-92
2023/09/22 08:32:04;;;;;;;1.17;0.90;;;;;;;;;;5114938;28;20223;-91
2023/09/22 08:34:34;;;;;;;1.00;1.00;;;;;;;;;;5114545;28;20199;-91
2023/09/22 08:37:01;;;;;;;1.50;0.90;;;;;;;;;;5115540;28;20283;-92
2023/09/22 08:39:30;;;;;;;1.25;0.90;;;;;;;;;;5114415;28;20788;-92
2023/09/22 08:41:58;;;;;;;0.73;0.73;;;;;;;;;;5115201;28;20210;-92
2023/09/22 08:44:28;;;;;;;0.93;0.90;;;;;;;;;;5114216;28;20196;-91
2023/09/22 08:46:56;;;;;;;1.20;1.10;;;;;;;;;;5113797;28;20210;-91
2023/09/22 08:49:23;;;;;;;0.98;0.98;;;;;;;;;;5113241;28;20256;-92
2023/09/22 08:51:51;;;;;;;0.90;0.90;;;;;;;;;;5113870;28;20220;-92
2023/09/22 08:54:19;;;;;;;0.93;0.77;;;;;;;;;;5113613;28;20283;-90
2023/09/22 08:56:47;;;;;;;0.68;0.68;;;;;;;;;;5114618;28;20192;-90
2023/09/22 08:59:14;;;;;;;1.20;1.00;;;;;;;;;;5113771;28;20304;-92
2023/09/22 09:01:43;;;;;;;1.75;1.05;;;;;;;;;;5114239;28;20282;-91
2023/09/22 09:04:34;;;;;;;1.25;1.00;;;;;;;;;;5115555;28;20264;-92
2023/09/22 09:07:02;;;;;;;2.50;1.20;;;;;;;;;;5114760;28;20204;-92
2023/09/22 09:09:43;;;;;;;1.85;1.10;;;;;;;;;;5115440;28;20222;-91
2023/09/22 09:12:11;;;;;;;1.33;1.23;;;;;;;;;;5116799;28;20215;-90
2023/09/22 09:14:40;;;;;;;1.50;1.40;;;;;;;;;;5121085;27;20278;-92
2023/09/22 09:17:23;;;;;;;1.40;1.30;;;;;;;;;;5121426;27;20621;-92
2023/09/22 09:19:55;;;;;;;1.25;1.02;;;;;;;;;;5121120;27;20215;-92
2023/09/22 09:22:24;;;;;;;0.70;0.70;;;;;;;;;;5120904;27;20202;-91
2023/09/22 09:24:53;;;;;;;1.02;1.02;;;;;;;;;;5124542;28;20198;-92
2023/09/22 09:27:21;;;;;;;1.10;0.95;;;;;;;;;;5123627;27;20225;-91
2023/09/22 09:29:50;;;;;;;2.58;1.92;;;;;;;;;;5123574;27;20295;-90
2023/09/22 09:32:30;;;;;;;0.85;0.85;;;;;;;;;;5121663;27;20269;-93
2023/09/22 09:34:58;;;;;;;3.17;1.20;;;;;;;;;;5121977;27;20195;-91
2023/09/22 09:37:26;;;;;;;1.05;0.95;;;;;;;;;;5139597;27;20222;-91
2023/09/22 09:39:56;;;;;;;1.27;1.02;;;;;;;;;;5142410;27;20652;-90
2023/09/22 09:42:25;;;;;;;1.70;0.70;;;;;;;;;;5126186;27;20209;-92
2023/09/22 09:44:54;;;;;;;0.75;0.75;;;;;;;;;;5121708;27;20196;-92
2023/09/22 09:47:29;;;;;;;1.00;0.82;;;;;;;;;;5121114;27;20227;-91
2023/09/22 09:49:58;;;;;;;0.63;0.63;;;;;;;;;;5121372;27;20726;-92
2023/09/22 09:52:31;;;;;;;0.82;0.82;;;;;;;;;;5122705;27;20302;-94
2023/09/22 09:55:12;;;;;;;1.00;1.00;;;;;;;;;;5137644;27;20210;-89
2023/09/22 09:57:42;;;;;;;0.98;0.70;;;;;;;;;;5145016;27;20183;-89
2023/09/22 10:00:14;;;;;;;0.88;0.70;;;;;;;;;;5144863;27;20207;-89
2023/09/22 10:02:47;;;;;;;0.80;0.80;;;;;;;;;;5145025;27;20183;-88
2023/09/22 10:05:17;;;;;;;1.67;1.00;;;;;;;;;;5144916;27;20224;-89
2023/09/22 10:07:46;;;;;;;1.20;0.75;;;;;;;;;;5140225;27;20207;-92
2023/09/22 10:10:16;;;;;;;1.00;1.00;;;;;;;;;;5132988;27;20299;-91
2023/09/22 10:12:45;;;;;;;1.00;1.00;;;;;;;;;;5125458;27;20250;-92
2023/09/22 10:15:13;;;;;;;1.20;1.10;;;;;;;;;;5124920;28;20291;-93
2023/09/22 10:17:41;;;;;;;1.00;1.00;;;;;;;;;;5132912;27;20199;-90
2023/09/22 10:20:12;;;;;;;0.77;0.77;;;;;;;;;;5123922;27;20250;-91
2023/09/22 10:22:39;;;;;;;0.68;0.57;;;;;;;;;;5122501;27;20582;-91
2023/09/22 10:25:24;;;;;;;1.10;0.98;;;;;;;;;;5118586;27;20286;-92
2023/09/22 10:27:57;;;;;;;0.63;0.63;;;;;;;;;;5118178;28;20200;-92
2023/09/22 10:30:30;;;;;;;1.30;0.82;;;;;;;;;;5120431;28;20287;-93
2023/09/22 10:33:29;;;;;;;0.80;0.80;;;;;;;;;;5125942;28;20216;-91
2023/09/22 10:35:59;;;;;;;1.65;0.82;;;;;;;;;;5116529;27;20207;-92
2023/09/22 10:38:27;;;;;;;3.13;1.08;;;;;;;;;;5117186;27;20280;-92
2023/09/22 10:41:06;;;;;;;0.95;0.82;;;;;;;;;;5117622;28;20278;-91
2023/09/22 10:43:34;;;;;;;0.60;0.60;;;;;;;;;;5117441;27;20571;-92
2023/09/22 10:46:03;;;;;;;1.67;1.58;;;;;;;;;;5126175;28;20287;-91
2023/09/22 10:48:35;;;;;;;1.60;0.82;;;;;;;;;;5116858;28;20269;-91
2023/09/22 10:51:06;;;;;;;0.70;0.70;;;;;;;;;;5117177;28;20282;-92
2023/09/22 10:53:38;;;;;;;1.23;0.80;;;;;;;;;;5117657;27;20593;-91
2023/09/22 10:56:06;;;;;;;0.65;0.65;;;;;;;;;;5116928;28;20223;-90
2023/09/22 10:58:34;;;;;;;1.35;1.25;;;;;;;;;;5116766;28;20218;-90
2023/09/22 11:01:04;;;;;;;0.57;0.57;;;;;;;;;;5116992;28;20242;-90
2023/09/22 11:03:35;;;;;;;1.15;1.05;;;;;;;;;;5117210;28;20222;-92
2023/09/22 11:06:06;;;;;;;0.80;0.80;;;;;;;;;;5116670;28;20229;-91
2023/09/22 11:08:34;;;;;;;0.90;0.90;;;;;;;;;;5116139;28;20311;-92
2023/09/22 11:11:03;;;;;;;0.80;0.80;;;;;;;;;;5116699;28;20195;-91
2023/09/22 11:13:30;;;;;;;0.88;0.88;;;;;;;;;;5117006;28;20251;-92
2023/09/22 11:16:01;;;;;;;1.20;0.90;;;;;;;;;;5117517;27;20290;-89
2023/09/22 11:18:31;;;;;;;0.88;0.88;;;;;;;;;;5116404;28;20307;-92
2023/09/22 11:20:59;;;;;;;1.50;0.70;;;;;;;;;;5115972;27;20199;-91
2023/09/22 11:23:29;;;;;;;1.05;1.05;;;;;;;;;;5116537;27;20231;-92
2023/09/22 11:26:02;;;;;;;0.77;0.77;;;;;;;;;;5116314;27;20287;-91
2023/09/22 11:28:31;;;;;;;0.70;0.70;;;;;;;;;;5115868;28;20677;-90
2023/09/22 11:31:08;;;;;;;0.95;0.70;;;;;;;;;;5116368;28;20203;-91
2023/09/22 11:33:37;;;;;;;2.35;0.80;;;;;;;;;;5119062;28;20477;-93
2023/09/22 11:36:05;;;;;;;1.20;1.10;;;;;;;;;;5121564;27;20203;-91
2023/09/22 11:38:35;;;;;;;0.70;0.70;;;;;;;;;;5120571;28;20279;-90
2023/09/22 11:41:09;;;;;;;1.20;1.10;;;;;;;;;;5116635;27;20234;-91
2023/09/22 11:43:44;;;;;;;1.10;0.70;;;;;;;;;;5115897;27;20559;-92
2023/09/22 11:46:13;;;;;;;1.17;0.90;;;;;;;;;;5121709;28;20234;-91
2023/09/22 11:48:57;;;;;;;2.13;1.15;;;;;;;;;;5118732;28;20231;-91
2023/09/22 11:51:48;;;;;;;0.75;0.70;;;;;;;;;;5115694;28;20208;-91
2023/09/22 11:54:19;;;;;;;0.90;0.75;;;;;;;;;;5115654;28;20784;-91
2023/09/22 11:56:47;;;;;;;1.13;0.70;;;;;;;;;;5116308;28;20553;-91
2023/09/22 11:59:17;;;;;;;1.20;1.00;;;;;;;;;;5115365;28;20303;-92
2023/09/22 12:01:46;;;;;;;1.70;0.80;;;;;;;;;;5115669;28;20191;-91
2023/09/22 12:04:14;;;;;;;0.90;0.90;;;;;;;;;;5114700;28;20227;-91
2023/09/22 12:06:42;;;;;;;1.00;1.00;;;;;;;;;;5115025;28;20204;-91
2023/09/22 12:09:11;;;;;;;1.02;0.98;;;;;;;;;;5116043;28;20254;-92
2023/09/22 12:11:41;;;;;;;2.53;0.85;;;;;;;;;;5116731;27;20657;-92
2023/09/22 12:14:09;;;;;;;0.90;0.90;;;;;;;;;;5115013;27;20588;-91
2023/09/22 12:16:37;;;;;;;1.10;0.90;;;;;;;;;;5116083;28;20267;-90
2023/09/22 12:19:05;;;;;;;0.73;0.70;;;;;;;;;;5115796;28;20353;-92
2023/09/22 12:21:34;;;;;;;0.85;0.85;;;;;;;;;;5115637;28;20284;-92
2023/09/22 12:24:02;;;;;;;1.20;0.90;;;;;;;;;;5117313;28;20576;-92
2023/09/22 12:26:30;;;;;;;0.70;0.70;;;;;;;;;;5115969;28;20196;-92
2023/09/22 12:29:05;;;;;;;1.55;1.00;;;;;;;;;;5117350;28;20215;-91
2023/09/22 12:31:33;;;;;;;0.55;0.55;;;;;;;;;;5114746;28;20648;-92
2023/09/22 12:34:00;;;;;;;0.65;0.65;;;;;;;;;;5125231;28;20278;-92
2023/09/22 12:36:29;;;;;;;0.85;0.80;;;;;;;;;;5127932;28;20207;-91
2023/09/22 12:38:57;;;;;;;0.80;0.80;;;;;;;;;;5132074;28;20207;-90
2023/09/22 12:41:24;;;;;;;0.75;0.75;;;;;;;;;;5129373;28;20206;-93
2023/09/22 12:43:52;;;;;;;1.10;0.70;;;;;;;;;;5117903;28;20290;-93
2023/09/22 12:46:21;;;;;;;1.48;0.80;;;;;;;;;;5114848;28;20199;-93
2023/09/22 12:48:49;;;;;;;0.75;0.75;;;;;;;;;;5114136;28;20696;-93
2023/09/22 12:51:16;;;;;;;0.70;0.70;;;;;;;;;;5114723;28;20208;-94
2023/09/22 12:53:44;;;;;;;0.80;0.80;;;;;;;;;;5132688;28;20219;-94
2023/09/22 12:56:12;;;;;;;0.75;0.70;;;;;;;;;;5116495;28;20207;-92
2023/09/22 12:58:39;;;;;;;0.80;0.80;;;;;;;;;;5133910;28;20249;-91
2023/09/22 13:01:12;;;;;;;0.90;0.90;;;;;;;;;;5138761;28;20214;-90
2023/09/22 13:03:41;;;;;;;0.80;0.80;;;;;;;;;;5138587;28;20191;-89
2023/09/22 13:06:09;;;;;;;1.38;0.95;;;;;;;;;;5138546;28;20657;-89
2023/09/22 13:08:38;;;;;;;1.13;1.02;;;;;;;;;;5138464;28;20230;-88
2023/09/22 13:11:05;;;;;;;0.73;0.73;;;;;;;;;;5138766;28;20248;-88
2023/09/22 13:13:33;;;;;;;0.50;0.50;;;;;;;;;;5121106;28;20724;-92
2023/09/22 13:16:02;;;;;;;0.82;0.57;;;;;;;;;;5124342;27;20243;-93
2023/09/22 13:18:29;;;;;;;0.90;0.90;;;;;;;;;;5117869;27;20307;-94
2023/09/22 13:20:58;;;;;;;0.88;0.88;;;;;;;;;;5118396;28;20223;-93
2023/09/22 13:23:26;;;;;;;0.95;0.90;;;;;;;;;;5116675;27;20210;-93
2023/09/22 13:25:53;;;;;;;0.90;0.70;;;;;;;;;;5115985;27;20657;-92
2023/09/22 13:28:21;;;;;;;0.82;0.82;;;;;;;;;;5115333;27;20275;-91
2023/09/22 13:30:53;;;;;;;1.45;0.98;;;;;;;;;;5116116;28;20195;-92
2023/09/22 13:33:21;;;;;;;0.70;0.70;;;;;;;;;;5115915;28;20283;-93
2023/09/22 13:35:49;;;;;;;1.17;0.90;;;;;;;;;;5118909;28;20302;-91
2023/09/22 13:38:19;;;;;;;0.80;0.80;;;;;;;;;;5125169;28;20204;-93
2023/09/22 13:40:46;;;;;;;0.90;0.70;;;;;;;;;;5114874;27;20283;-91
2023/09/22 13:43:14;;;;;;;1.80;1.38;;;;;;;;;;5114300;28;20207;-91
2023/09/22 13:45:42;;;;;;;1.63;1.20;;;;;;;;;;5114081;28;20282;-91
2023/09/22 13:48:11;;;;;;;1.10;1.00;;;;;;;;;;5113812;28;20402;-92
2023/09/22 13:50:39;;;;;;;2.00;1.00;;;;;;;;;;5114216;28;20290;-91
2023/09/22 13:53:08;;;;;;;0.93;0.80;;;;;;;;;;5114247;28;20272;-92
2023/09/22 13:55:38;;;;;;;1.20;1.10;;;;;;;;;;5114249;28;20261;-92
2023/09/22 13:58:06;;;;;;;0.90;0.90;;;;;;;;;;5114527;28;20219;-91
2023/09/22 14:00:33;;;;;;;0.77;0.77;;;;;;;;;;5117098;28;20231;-92
2023/09/22 14:03:02;;;;;;;1.50;0.80;;;;;;;;;;5118089;28;20198;-92
2023/09/22 14:05:31;;;;;;;0.80;0.80;;;;;;;;;;5124747;28;20297;-93
2023/09/22 14:07:59;;;;;;;0.90;0.90;;;;;;;;;;5129497;27;20225;-92
2023/09/22 14:10:27;;;;;;;0.82;0.82;;;;;;;;;;5136979;28;20184;-89
2023/09/22 14:12:56;;;;;;;2.45;0.80;;;;;;;;;;5139594;28;20215;-91
2023/09/22 14:15:24;;;;;;;1.20;0.90;;;;;;;;;;5134967;28;20249;-91
2023/09/22 14:17:52;;;;;;;1.77;0.70;;;;;;;;;;5121806;28;20274;-91
2023/09/22 14:20:20;;;;;;;3.38;0.82;;;;;;;;;;5118254;28;20223;-92
2023/09/22 14:22:48;;;;;;;0.93;0.88;;;;;;;;;;5117971;28;20195;-93
2023/09/22 14:25:16;;;;;;;0.63;0.63;;;;;;;;;;5117981;28;20223;-92
2023/09/22 14:27:44;;;;;;;0.60;0.60;;;;;;;;;;5117547;27;20192;-92
2023/09/22 14:30:14;;;;;;;0.70;0.70;;;;;;;;;;5117486;28;20304;-91
2023/09/22 14:32:42;;;;;;;1.20;1.10;;;;;;;;;;5117947;28;20200;-92
2023/09/22 14:35:10;;;;;;;0.80;0.80;;;;;;;;;;5117373;28;20222;-92
2023/09/22 14:37:37;;;;;;;0.75;0.75;;;;;;;;;;5117904;27;20278;-91
2023/09/22 14:40:06;;;;;;;2.67;1.10;;;;;;;;;;5116934;28;20298;-92
2023/09/22 14:42:34;;;;;;;0.95;0.85;;;;;;;;;;5116831;28;20283;-92
2023/09/22 14:45:02;;;;;;;0.70;0.70;;;;;;;;;;5116514;28;20286;-91
2023/09/22 14:47:31;;;;;;;0.85;0.85;;;;;;;;;;5116372;28;20224;-91
2023/09/22 14:49:59;;;;;;;1.00;0.98;;;;;;;;;;5117033;28;20216;-92
2023/09/22 14:52:26;;;;;;;1.10;0.85;;;;;;;;;;5120792;28;20222;-91
2023/09/22 14:54:54;;;;;;;0.98;0.80;;;;;;;;;;5118659;28;20725;-92